Impacts METAR Board INFO
IDs:

KCVG - Cincinnati Intl, KY, US

Updated at: 1503 UTC 16 Jan 2018
Potential Impact None Slight Moderate High
Time16/03Z 16/04Z 16/05Z 16/06Z 16/07Z 16/08Z 16/09Z 16/10Z 16/11Z 16/12Z 16/13Z 16/14Z 16/15Z
VIS2 5 9 8 10 10 8 8 10 10 7 8 8
CIG15 45 65 40 50 21 19 18 18 18 120 130 17
CoverOVCOVCOVCOVCOVCOVCOVCOVCOVCOVCOVCOVCOVC
FltCatIFRMVFRVFRVFRVFRMVFRMVFRMVFRMVFRMVFRVFRVFRMVFR
WX-SN BR-SN BR-SN-SN-----SN-SN----------
WDir230290300300290280320300300280290280290
WSpd6 15 17 11 11 9 8 10 8 10 9 9 11
WGst-- -- -- -- -- -- -- -- -- -- -- -- --
Raw hourly METARs
KCVG 160252Z 23006KT 2SM -SN BR SCT008 BKN015 OVC028 M03/M03 A3033 RMK AO2 SLP279 P0001 60003 T10281033 53010 $
KCVG 160352Z COR 29015KT 5SM -SN BR FEW013 BKN045 OVC070 M07/M09 A3037 RMK AO2 WSHFT 0301 SLP295 FROPA DRSN P0001 T10721089 $
KCVG 160452Z 30017KT 9SM -SN FEW017 OVC065 M09/M12 A3038 RMK AO2 SLP298 DRSN P0000 T10941122 410171094 $
KCVG 160552Z 30011KT 8SM -SN FEW029 BKN040 OVC065 M10/M14 A3038 RMK AO2 SLP299 4/003 931006 DRSN P0000 60004 T11001139 11028 21100 51017 $
KCVG 160652Z 29011KT 10SM FEW019 FEW041 OVC050 M11/M14 A3041 RMK AO2 SNE45 SLP308 P0000 T11061139 $
KCVG 160752Z 28009KT 10SM OVC021 M11/M14 A3042 RMK AO2 SLP312 T11061139 $
KCVG 160852Z 32008KT 8SM -SN OVC019 M12/M14 A3043 RMK AO2 SNB0757 SLP318 P0000 60000 T11171144 51018 $
KCVG 160952Z 30010KT 8SM -SN OVC018 M12/M14 A3044 RMK AO2 SLP321 P0000 T11171144 $
KCVG 161052Z 30008KT 10SM OVC018 M13/M16 A3045 RMK AO2 SNE35 SLP324 THN SPTS INOVC P0000 T11281156 $
KCVG 161152Z COR 28010KT 10SM BKN018 BKN090 OVC110 M13/M17 A3046 RMK AO2 SLP328 4/003 931000 60000 70012 T11331167 11100 21133 53009 $
KCVG 161252Z COR 29009KT 7SM FEW020 SCT100 OVC120 M13/M17 A3048 RMK AO2 SLP334 T11331172
KCVG 161352Z 28009KT 8SM SCT110 OVC130 M14/M17 A3049 RMK AO2 SLP340 BINOVC N P0000 T11391172
KCVG 161452Z 29011KT 8SM FEW013 BKN017 OVC120 M14/M17 A3051 RMK AO2 SLP346 T11391172 51010